Time;durP1;ratioP1;P1;durP2;ratioP2;P2;SDS_P1;SDS_P2;PMS_P1;PMS_P2;Temp;Humidity;BMP_temperature;BMP_pressure;BME280_temperature;BME280_humidity;BME280_pressure;Samples;Min_cycle;Max_cycle;Signal;HPM_P1;HPM_P2
2022/06/15 00:01:07;;;;;;;9.23;4.43;;;;;;;16.03;68.96;96471.88;4935567;29;20117;-81
2022/06/15 00:03:37;;;;;;;5.88;4.40;;;;;;;15.83;66.45;96473.69;4935587;29;20052;-85
2022/06/15 00:06:06;;;;;;;8.05;4.82;;;;;;;15.61;67.01;96477.72;4917630;29;20056;-84
2022/06/15 00:08:33;;;;;;;7.95;5.07;;;;;;;15.62;67.28;96473.84;4937225;29;20064;-86
2022/06/15 00:11:06;;;;;;;10.55;4.97;;;;;;;15.59;67.58;96471.78;4931328;29;20119;-84
2022/06/15 00:13:33;;;;;;;5.80;4.20;;;;;;;15.64;68.96;96474.31;5480354;23;20057;-81
2022/06/15 00:18:37;;;;;;;7.78;5.28;;;;;;;15.66;69.71;96472.03;5864657;23;20040;-84
2022/06/15 00:23:51;;;;;;;9.85;5.65;;;;;;;15.62;69.44;96466.41;4937183;23;20043;-86
2022/06/15 00:26:18;;;;;;;7.07;4.57;;;;;;;15.61;69.54;96469.50;4953577;29;20052;-85
2022/06/15 00:28:47;;;;;;;8.65;4.80;;;;;;;15.61;69.56;96464.00;4936653;29;20044;-85
2022/06/15 00:31:15;;;;;;;7.68;4.78;;;;;;;15.62;69.46;96465.59;4951679;29;20079;-86
2022/06/15 00:33:45;;;;;;;7.25;4.70;;;;;;;15.59;67.66;96469.03;4954171;29;20075;-87
2022/06/15 00:36:14;;;;;;;7.57;4.97;;;;;;;15.58;68.97;96461.94;4951667;29;20063;-85
2022/06/15 00:38:42;;;;;;;8.55;4.82;;;;;;;15.55;67.31;96465.38;4953019;29;20134;-83
2022/06/15 00:41:22;;;;;;;9.05;4.60;;;;;;;15.48;67.79;96462.44;4949779;29;20057;-84
2022/06/15 00:46:34;;;;;;;;;;;;;;;15.42;69.82;96448.16;4931481;28;20045;-86
2022/06/15 00:49:08;;;;;;;8.93;5.38;;;;;;;15.37;70.13;96457.41;4917877;29;19962;-84
2022/06/15 00:51:37;;;;;;;8.82;5.35;;;;;;;15.35;69.49;96448.75;4934463;29;20099;-85
2022/06/15 00:54:05;;;;;;;8.82;4.90;;;;;;;15.33;69.64;96445.53;4916517;29;20054;-83
2022/06/15 01:01:45;;;;;;;5.40;4.75;;;;;;;15.29;71.56;96450.09;4995117;23;20044;-86
2022/06/15 01:04:14;;;;;;;6.78;4.78;;;;;;;15.27;69.38;96446.91;4932198;29;20055;-84
2022/06/15 01:09:17;;;;;;;7.88;4.90;;;;;;;15.23;69.83;96443.25;4931087;29;20044;-86
2022/06/15 01:12:00;;;;;;;9.27;4.80;;;;;;;15.20;69.44;96446.72;4935707;29;20068;-83
2022/06/15 01:15:03;;;;;;;7.53;5.07;;;;;;;15.13;69.49;96449.22;4935671;29;20076;-83
2022/06/15 01:17:52;;;;;;;7.05;4.95;;;;;;;15.11;69.90;96440.53;4921313;29;20044;-85
2022/06/15 01:23:26;;;;;;;9.90;5.20;;;;;;;15.13;70.58;96441.00;5060275;23;20043;-85
2022/06/15 01:26:08;;;;;;;8.73;4.65;;;;;;;15.11;70.36;96435.06;4963252;23;20032;-84
2022/06/15 01:31:24;;;;;;;8.75;5.57;;;;;;;15.13;72.13;96435.50;5643320;23;20064;-81
2022/06/15 01:41:33;;;;;;;8.05;5.10;;;;;;;15.04;68.94;96432.91;6010522;23;20821;-79
2022/06/15 01:44:08;;;;;;;8.00;5.25;;;;;;;15.09;70.38;96431.88;4924033;29;20043;-85
2022/06/15 01:49:17;;;;;;;8.40;5.70;;;;;;;15.05;69.91;96436.44;5475503;23;20059;-81
2022/06/15 01:51:45;;;;;;;9.70;6.00;;;;;;;14.98;69.42;96434.28;5284109;23;20053;-81
2022/06/15 01:56:49;;;;;;;12.73;6.30;;;;;;;14.79;69.61;96434.84;6067192;23;20371;-81
2022/06/15 01:59:21;;;;;;;10.88;6.20;;;;;;;14.69;69.89;96432.56;5217892;23;20380;-86
2022/06/15 02:01:58;;;;;;;9.63;6.28;;;;;;;14.68;70.06;96430.19;4931902;28;20035;-86
2022/06/15 02:04:35;;;;;;;11.95;6.63;;;;;;;14.58;70.52;96431.44;4939939;29;20052;-87
2022/06/15 02:07:15;;;;;;;9.38;5.93;;;;;;;14.60;70.50;96429.13;4939961;29;20076;-79
2022/06/15 02:09:51;;;;;;;9.68;6.55;;;;;;;14.64;70.69;96435.53;4936238;29;20108;-83
2022/06/15 02:12:22;;;;;;;9.80;7.03;;;;;;;14.66;71.18;96429.72;4919278;29;20116;-85
2022/06/15 02:14:53;;;;;;;12.10;6.78;;;;;;;14.58;70.87;96428.69;4937515;29;20048;-84
2022/06/15 02:17:25;;;;;;;8.68;6.47;;;;;;;14.63;71.06;96422.97;4920425;29;20048;-84
2022/06/15 02:19:59;;;;;;;13.23;7.07;;;;;;;14.65;71.58;96417.94;4932484;28;20048;-83
2022/06/15 02:22:30;;;;;;;13.05;7.72;;;;;;;14.66;71.96;96421.47;4917751;29;20044;-84
2022/06/15 02:25:03;;;;;;;12.55;7.15;;;;;;;14.63;71.63;96417.50;4957837;23;20027;-85
2022/06/15 02:27:33;;;;;;;10.43;6.95;;;;;;;14.63;71.37;96417.50;4899333;29;20044;-84
2022/06/15 02:30:05;;;;;;;11.85;7.50;;;;;;;14.48;71.50;96418.19;4900161;29;20048;-85
2022/06/15 02:32:33;;;;;;;13.85;7.47;;;;;;;14.48;71.41;96409.97;4916881;29;20108;-85
2022/06/15 02:35:02;;;;;;;12.10;7.57;;;;;;;14.43;71.32;96404.66;4916124;29;20079;-85
2022/06/15 02:37:28;;;;;;;13.48;7.75;;;;;;;14.34;71.85;96397.34;4899976;29;20048;-85
2022/06/15 02:39:55;;;;;;;13.73;8.20;;;;;;;14.29;71.98;96403.06;4916130;29;20059;-83
2022/06/15 02:42:26;;;;;;;14.65;8.07;;;;;;;14.21;72.06;96395.75;5094271;23;20113;-86
2022/06/15 02:44:55;;;;;;;10.57;7.25;;;;;;;14.05;72.79;96398.34;4935628;29;20052;-85
2022/06/15 02:52:47;;;;;;;12.32;6.97;;;;;;;14.08;72.57;96403.13;5544761;23;20056;-82
2022/06/15 02:55:18;;;;;;;16.65;7.80;;;;;;;14.13;72.57;96399.38;4937743;29;20564;-83
2022/06/15 02:57:49;;;;;;;10.52;7.70;;;;;;;14.08;72.64;96405.06;4922693;29;20111;-85
2022/06/15 03:03:03;;;;;;;11.82;7.25;;;;;;;14.12;72.70;96403.25;4934259;29;20068;-83
2022/06/15 03:05:30;;;;;;;9.38;6.93;;;;;;;14.17;72.62;96399.50;4917026;29;20044;-85
2022/06/15 03:07:58;;;;;;;14.60;8.30;;;;;;;14.14;73.38;96406.44;4917112;29;20052;-84
2022/06/15 03:10:25;;;;;;;14.95;7.90;;;;;;;14.15;73.62;96397.13;4934064;29;20054;-85
2022/06/15 03:15:18;;;;;;;12.07;7.38;;;;;;;14.17;73.43;96411.25;5148820;23;20024;-84
2022/06/15 03:17:45;;;;;;;9.95;7.30;;;;;;;14.15;72.89;96407.25;4890484;29;20040;-84
2022/06/15 03:20:12;;;;;;;14.63;8.02;;;;;;;14.12;73.03;96408.72;5036127;23;20074;-81
2022/06/15 03:41:01;;;;;;;12.77;7.95;;;;;;;14.17;73.90;96403.03;5241980;23;20056;-86
2022/06/15 03:43:28;;;;;;;11.02;7.70;;;;;;;14.20;74.51;96409.75;4874438;29;20073;-83
2022/06/15 03:45:55;;;;;;;12.07;7.55;;;;;;;14.22;75.03;96405.56;4893935;29;20049;-84
2022/06/15 03:48:24;;;;;;;12.68;8.05;;;;;;;14.29;75.54;96405.78;4878967;29;20060;-85
2022/06/15 03:50:50;;;;;;;11.63;7.68;;;;;;;14.26;74.52;96409.22;4881689;29;20109;-84
2022/06/15 03:53:17;;;;;;;15.80;8.57;;;;;;;14.27;74.85;96415.50;4896580;29;20045;-84
2022/06/15 03:55:45;;;;;;;11.68;7.30;;;;;;;14.24;73.76;96416.97;5008249;23;20045;-85
2022/06/15 03:58:17;;;;;;;12.15;7.90;;;;;;;14.24;74.26;96407.94;4914405;29;20053;-85
2022/06/15 04:00:44;;;;;;;11.15;7.75;;;;;;;14.22;73.98;96418.47;4915253;29;20112;-85
2022/06/15 04:05:57;;;;;;;11.15;7.70;;;;;;;14.26;75.28;96413.91;4908170;29;20048;-84
2022/06/15 04:08:38;;;;;;;11.73;7.80;;;;;;;14.26;74.68;96409.22;4914172;29;20048;-84
2022/06/15 04:11:07;;;;;;;13.35;6.95;;;;;;;14.27;74.82;96402.59;4909767;29;20064;-83
2022/06/15 04:13:36;;;;;;;10.60;7.60;;;;;;;14.28;75.51;96406.13;4917096;29;20048;-84
2022/06/15 04:16:07;;;;;;;9.35;7.30;;;;;;;14.35;76.10;96409.09;4940896;23;20044;-85
2022/06/15 04:18:34;;;;;;;13.15;7.75;;;;;;;14.38;76.23;96400.22;4931923;29;20131;-84
2022/06/15 04:21:01;;;;;;;11.95;8.25;;;;;;;14.39;75.98;96399.06;4926799;29;20578;-84
2022/06/15 04:23:28;;;;;;;14.82;8.15;;;;;;;14.38;75.09;96392.00;4933951;29;20040;-84
2022/06/15 04:25:58;;;;;;;13.77;9.15;;;;;;;14.43;74.93;96396.44;4934357;29;20075;-84
2022/06/15 04:28:27;;;;;;;11.70;7.90;;;;;;;14.42;74.45;96400.34;4933807;29;20050;-85
2022/06/15 04:30:56;;;;;;;14.35;8.25;;;;;;;14.41;73.90;96394.06;5022596;23;20086;-86
2022/06/15 04:33:24;;;;;;;14.95;9.68;;;;;;;14.35;73.77;96396.22;4895080;29;20041;-84
2022/06/15 04:35:51;;;;;;;18.08;9.20;;;;;;;14.28;73.37;96395.97;4897889;29;20049;-84
2022/06/15 04:41:38;;;;;;;15.02;9.30;;;;;;;14.35;74.70;96403.63;4896830;29;20053;-86
2022/06/15 04:44:05;;;;;;;16.17;9.55;;;;;;;14.31;75.54;96406.25;4858190;29;20049;-83
2022/06/15 04:46:33;;;;;;;14.23;8.15;;;;;;;14.32;74.94;96407.84;4879703;29;20049;-84
2022/06/15 04:49:00;;;;;;;14.02;8.07;;;;;;;14.31;74.52;96417.22;4895844;29;20060;-81
2022/06/15 04:51:29;;;;;;;14.27;8.95;;;;;;;14.25;74.10;96413.09;4893081;29;20077;-81
2022/06/15 04:53:58;;;;;;;13.05;9.57;;;;;;;14.24;74.36;96410.69;4871253;29;20117;-80
2022/06/15 04:56:26;;;;;;;16.13;9.35;;;;;;;14.17;73.76;96413.19;4889300;29;20041;-81
2022/06/15 04:58:53;;;;;;;16.02;9.20;;;;;;;14.20;74.40;96409.75;4891126;29;20057;-82
2022/06/15 05:01:20;;;;;;;16.17;8.57;;;;;;;14.21;74.09;96406.72;4889294;29;20057;-81
2022/06/15 05:03:48;;;;;;;13.82;8.15;;;;;;;14.30;74.83;96409.31;4883967;29;20049;-79
2022/06/15 05:06:34;;;;;;;16.92;9.05;;;;;;;14.25;75.11;96412.28;4865048;29;20080;-79
2022/06/15 05:09:00;;;;;;;12.50;7.53;;;;;;;14.28;74.41;96412.41;4857937;29;20057;-78
2022/06/15 05:11:27;;;;;;;16.33;9.00;;;;;;;14.28;74.35;96406.94;4858290;29;20426;-79
2022/06/15 05:13:54;;;;;;;12.05;8.05;;;;;;;14.20;73.96;96410.59;4857769;29;20061;-78
2022/06/15 05:16:21;;;;;;;13.55;7.68;;;;;;;14.43;75.66;96421.09;4857293;29;20057;-79
2022/06/15 05:18:49;;;;;;;14.43;8.23;;;;;;;14.52;76.03;96421.84;4857917;29;20057;-79
2022/06/15 05:21:16;;;;;;;9.02;6.90;;;;;;;14.57;75.20;96424.34;4857252;29;20072;-78
2022/06/15 05:23:42;;;;;;;12.23;7.25;;;;;;;14.61;75.49;96422.50;4857832;29;20061;-79
2022/06/15 05:26:09;;;;;;;10.00;6.68;;;;;;;14.64;74.79;96423.78;4849089;29;20054;-78
2022/06/15 05:28:37;;;;;;;14.60;8.15;;;;;;;14.57;74.56;96427.09;4852381;29;20054;-79
2022/06/15 05:31:20;;;;;;;14.07;7.97;;;;;;;14.58;75.05;96425.94;4848064;29;20064;-77
2022/06/15 05:33:53;;;;;;;13.63;7.80;;;;;;;14.48;75.34;96423.66;4844727;29;20425;-80
2022/06/15 05:36:20;;;;;;;;;;;;;;;14.63;75.01;96428.47;4857874;29;20085;-80
2022/06/15 05:38:47;;;;;;;13.18;7.70;;;;;;;14.72;75.26;96431.06;4859551;29;19931;-81
2022/06/15 05:41:13;;;;;;;13.18;7.32;;;;;;;14.75;75.27;96428.47;4860491;29;20049;-80
2022/06/15 05:43:41;;;;;;;14.85;8.00;;;;;;;14.67;74.59;96423.91;4859107;29;20049;-81
2022/06/15 05:46:19;;;;;;;14.75;7.82;;;;;;;14.58;74.81;96421.28;4857972;29;20045;-80
2022/06/15 05:48:45;;;;;;;11.50;6.90;;;;;;;14.85;74.53;96424.47;4861276;29;20059;-80
2022/06/15 05:51:13;;;;;;;13.20;7.72;;;;;;;14.88;74.55;96419.09;4861443;29;20056;-81
2022/06/15 05:53:40;;;;;;;12.45;7.50;;;;;;;14.80;74.06;96420.00;4858533;29;20046;-79
2022/06/15 05:56:08;;;;;;;14.23;7.03;;;;;;;14.89;74.22;96408.94;4863265;29;20053;-81
2022/06/15 05:58:34;;;;;;;11.15;6.68;;;;;;;15.03;73.94;96414.03;4863195;29;20053;-81
2022/06/15 06:01:09;;;;;;;13.07;6.90;;;;;;;15.18;73.74;96420.75;4863920;29;20057;-81
2022/06/15 06:03:36;;;;;;;9.88;6.43;;;;;;;15.28;72.87;96414.78;4862265;29;20049;-81
2022/06/15 06:06:03;;;;;;;17.80;6.68;;;;;;;15.38;73.04;96420.59;4861731;29;20084;-81
2022/06/15 06:08:31;;;;;;;10.05;6.30;;;;;;;15.32;72.44;96413.75;4863116;29;20053;-81
2022/06/15 06:10:58;;;;;;;9.13;6.47;;;;;;;15.41;72.73;96413.63;4866339;29;20050;-81
2022/06/15 06:13:25;;;;;;;9.00;6.10;;;;;;;15.53;72.59;96416.31;4848743;29;20046;-80
2022/06/15 06:15:52;;;;;;;7.22;5.50;;;;;;;15.53;71.56;96415.53;4868291;29;20073;-80
2022/06/15 06:18:18;;;;;;;8.48;5.68;;;;;;;15.58;71.26;96423.53;4862945;29;20088;-80
2022/06/15 06:20:46;;;;;;;10.95;6.13;;;;;;;15.54;71.78;96425.34;4866325;29;20509;-80
2022/06/15 06:23:14;;;;;;;10.68;6.53;;;;;;;15.60;72.58;96422.00;4853311;29;20058;-79
2022/06/15 06:25:42;;;;;;;12.90;6.30;;;;;;;15.80;72.89;96431.22;4874140;29;20458;-85
2022/06/15 06:28:19;;;;;;;10.52;6.60;;;;;;;15.83;71.45;96424.25;4879247;29;20057;-85
2022/06/15 06:33:26;;;;;;;8.85;5.28;;;;;;;16.20;70.98;96426.81;4844834;29;20046;-84
2022/06/15 06:35:57;;;;;;;10.73;5.82;;;;;;;16.19;69.83;96431.50;4858142;29;20060;-84
2022/06/15 06:38:24;;;;;;;11.90;5.85;;;;;;;16.28;68.62;96429.38;4856121;29;20057;-86
2022/06/15 06:40:54;;;;;;;10.30;6.05;;;;;;;16.39;69.96;96424.97;4856731;29;20046;-84
2022/06/15 06:43:21;;;;;;;8.60;5.28;;;;;;;16.61;70.17;96425.50;4860635;29;20084;-84
2022/06/15 06:45:48;;;;;;;12.45;6.25;;;;;;;16.66;69.73;96434.28;4856172;29;20050;-79
2022/06/15 06:48:15;;;;;;;14.15;5.55;;;;;;;16.69;69.42;96439.06;4855182;29;20053;-83
2022/06/15 06:50:42;;;;;;;7.90;5.60;;;;;;;16.85;67.87;96430.84;4855634;29;20037;-83
2022/06/15 06:53:10;;;;;;;10.32;5.80;;;;;;;17.06;67.69;96435.25;4842244;29;20050;-81
2022/06/15 06:55:37;;;;;;;8.82;5.40;;;;;;;17.12;67.33;96439.31;4842684;29;20050;-85
2022/06/15 06:58:05;;;;;;;7.80;5.03;;;;;;;17.18;66.60;96438.69;4842816;29;20463;-83
2022/06/15 07:00:34;;;;;;;11.38;5.35;;;;;;;17.27;65.53;96438.47;4851717;29;20440;-85
2022/06/15 07:03:01;;;;;;;8.52;5.30;;;;;;;17.38;67.32;96442.28;4859868;29;20532;-85
2022/06/15 07:05:28;;;;;;;9.27;5.07;;;;;;;17.42;66.23;96442.34;4849914;29;20049;-84
2022/06/15 07:07:55;;;;;;;9.93;5.22;;;;;;;17.50;65.70;96443.31;4843978;29;20061;-77
2022/06/15 07:10:22;;;;;;;9.07;4.95;;;;;;;17.62;66.55;96434.91;4839144;29;20095;-78
2022/06/15 07:12:48;;;;;;;8.73;4.68;;;;;;;17.74;66.34;96443.06;4842584;29;20057;-79
2022/06/15 07:15:16;;;;;;;9.43;5.15;;;;;;;17.76;64.17;96443.50;4831343;29;20054;-78
2022/06/15 07:17:43;;;;;;;7.47;5.10;;;;;;;17.89;64.66;96444.94;4838127;29;20049;-84
2022/06/15 07:20:11;;;;;;;11.98;5.28;;;;;;;17.99;66.09;96438.06;4841795;29;20057;-82
2022/06/15 07:25:33;;;;;;;9.32;5.32;;;;;;;18.28;64.72;96442.16;4833525;29;20066;-83
2022/06/15 07:28:01;;;;;;;8.75;5.40;;;;;;;18.40;63.72;96435.66;4841733;29;20050;-76
2022/06/15 07:30:30;;;;;;;8.55;4.63;;;;;;;18.62;64.72;96431.31;4840255;29;20494;-76
2022/06/15 07:32:57;;;;;;;8.70;5.18;;;;;;;18.71;63.86;96429.16;4853423;29;20052;-77
2022/06/15 07:35:27;;;;;;;9.18;4.47;;;;;;;18.85;64.53;96439.63;4858006;29;20049;-76
2022/06/15 07:37:54;;;;;;;8.00;4.30;;;;;;;18.95;62.57;96428.75;4858656;29;20498;-77
2022/06/15 07:40:22;;;;;;;7.63;4.70;;;;;;;19.06;61.51;96433.66;4861920;29;20050;-81
2022/06/15 07:42:50;;;;;;;7.80;4.68;;;;;;;19.26;63.18;96432.34;4870253;29;20053;-81
2022/06/15 07:45:19;;;;;;;7.65;4.93;;;;;;;19.23;61.80;96435.88;4871522;29;20046;-82
2022/06/15 07:50:37;;;;;;;8.65;4.53;;;;;;;19.45;61.41;96435.00;4884027;29;20047;-86
2022/06/15 07:53:06;;;;;;;9.13;4.47;;;;;;;19.71;61.90;96441.69;4883446;29;20049;-83
2022/06/15 07:55:37;;;;;;;7.55;4.43;;;;;;;19.79;60.70;96433.13;4875583;29;20053;-86
2022/06/15 07:58:04;;;;;;;8.73;4.82;;;;;;;20.00;60.95;96429.81;4878059;29;20054;-78
2022/06/15 08:00:33;;;;;;;9.15;5.13;;;;;;;20.05;59.19;96429.47;4881287;29;20065;-87
2022/06/15 08:03:02;;;;;;;7.68;4.15;;;;;;;20.23;58.56;96428.88;4851410;29;20053;-79
2022/06/15 08:05:31;;;;;;;9.23;4.47;;;;;;;20.37;58.85;96433.75;4853784;29;20136;-78
2022/06/15 08:07:57;;;;;;;12.35;4.32;;;;;;;20.56;57.00;96428.81;4854560;29;20066;-78
2022/06/15 08:10:26;;;;;;;5.78;3.92;;;;;;;20.77;57.97;96419.91;4857943;29;20064;-79
2022/06/15 08:12:53;;;;;;;9.25;4.30;;;;;;;21.28;57.78;96421.09;4857095;29;20053;-78
2022/06/15 08:15:21;;;;;;;9.52;4.30;;;;;;;22.16;55.26;96419.19;4854046;29;20136;-78
2022/06/15 08:17:50;;;;;;;7.50;4.13;;;;;;;22.74;53.11;96418.09;4854436;29;20061;-78
2022/06/15 08:23:00;;;;;;;9.10;4.15;;;;;;;23.48;50.40;96416.47;5016979;23;20055;-83
2022/06/15 08:25:32;;;;;;;8.18;4.10;;;;;;;23.94;49.41;96408.00;4945740;29;20052;-86
2022/06/15 08:28:00;;;;;;;9.10;3.90;;;;;;;23.77;49.59;96408.88;4936259;29;20078;-79
2022/06/15 08:30:27;;;;;;;6.18;3.63;;;;;;;24.00;49.51;96406.38;4938170;29;20052;-79
2022/06/15 08:32:53;;;;;;;8.45;3.80;;;;;;;24.07;49.35;96400.00;4928828;29;20752;-79
2022/06/15 08:35:20;;;;;;;7.75;3.80;;;;;;;24.02;48.90;96408.78;4928379;29;20055;-78
2022/06/15 08:37:47;;;;;;;6.97;3.65;;;;;;;24.03;49.05;96410.34;4928473;29;20059;-76
2022/06/15 08:40:16;;;;;;;6.50;3.72;;;;;;;23.99;47.35;96398.44;4928281;29;20058;-81
2022/06/15 08:42:53;;;;;;;5.45;3.05;;;;;;;24.02;48.62;96401.22;4939908;29;20063;-78
2022/06/15 08:45:26;;;;;;;7.40;3.10;;;;;;;24.13;48.57;96403.94;4929453;29;20051;-79
2022/06/15 08:48:11;;;;;;;6.13;3.42;;;;;;;24.17;49.66;96404.69;4928925;29;20423;-79
2022/06/15 08:50:46;;;;;;;7.70;3.35;;;;;;;24.27;46.74;96408.63;4928395;29;20404;-79
2022/06/15 08:53:18;;;;;;;7.22;3.30;;;;;;;24.28;48.63;96399.09;4927869;29;20139;-80
2022/06/15 08:55:48;;;;;;;7.17;3.67;;;;;;;24.48;47.59;96405.75;4934221;29;20040;-80
2022/06/15 08:58:22;;;;;;;6.85;3.13;;;;;;;24.58;48.28;96412.44;4931232;29;20056;-78
2022/06/15 09:00:54;;;;;;;8.82;3.55;;;;;;;24.62;46.58;96405.66;4928254;29;20055;-78
2022/06/15 09:03:28;;;;;;;5.50;3.08;;;;;;;24.60;45.67;96404.50;4927591;29;21452;-78
2022/06/15 09:06:07;;;;;;;6.45;3.10;;;;;;;24.65;45.18;96402.06;4928537;29;20047;-78
2022/06/15 09:08:59;;;;;;;5.75;3.05;;;;;;;24.79;46.64;96405.91;4928066;29;20423;-78
2022/06/15 09:11:39;;;;;;;6.35;3.45;;;;;;;24.67;45.83;96405.22;4925814;29;20083;-79
2022/06/15 09:26:35;;;;;;;6.82;3.38;;;;;;;25.45;44.72;96403.75;5674919;23;20036;-84
2022/06/15 09:29:06;;;;;;;5.30;2.85;;;;;;;25.39;45.99;96393.47;4921836;29;20055;-79
2022/06/15 09:31:41;;;;;;;4.78;2.75;;;;;;;25.51;46.22;96402.09;4919938;29;20060;-85
2022/06/15 09:34:11;;;;;;;5.25;3.10;;;;;;;25.65;46.77;96403.94;4936475;29;20048;-80
2022/06/15 09:36:46;;;;;;;5.00;3.10;;;;;;;25.79;45.20;96391.06;4936962;29;20044;-85
2022/06/15 09:39:13;;;;;;;7.30;3.20;;;;;;;25.73;44.70;96394.28;4940243;28;20040;-84
2022/06/15 09:44:17;;;;;;;7.72;3.13;;;;;;;25.67;46.02;96390.38;5375249;23;20071;-84
2022/06/15 09:46:54;;;;;;;4.97;2.92;;;;;;;25.69;45.15;96390.75;4946793;23;20063;-81
2022/06/15 09:51:56;;;;;;;4.18;3.15;;;;;;;25.77;44.26;96392.28;4927299;23;20050;-86
2022/06/15 09:54:32;;;;;;;4.57;2.78;;;;;;;25.93;45.31;96399.25;4935641;29;20044;-80
2022/06/15 09:59:32;;;;;;;5.10;3.05;;;;;;;26.16;45.25;96393.00;4891984;29;20048;-76
2022/06/15 10:01:59;;;;;;;7.65;3.38;;;;;;;26.18;50.10;96394.16;4902217;29;20056;-81
2022/06/15 10:04:30;;;;;;;7.47;3.58;;;;;;;26.24;46.01;96398.06;4916928;23;20041;-85
2022/06/15 10:07:00;;;;;;;7.55;3.17;;;;;;;26.26;42.95;96395.66;4949574;23;20044;-82
2022/06/15 10:14:49;;;;;;;7.22;3.25;;;;;;;26.38;45.85;96393.50;5904393;23;20376;-81
2022/06/15 10:24:51;;;;;;;4.38;2.63;;;;;;;26.17;41.35;96392.56;5811180;23;20036;-78
2022/06/15 10:27:23;;;;;;;8.15;2.97;;;;;;;26.34;43.97;96387.16;5248068;23;20258;-81
2022/06/15 10:30:03;;;;;;;6.35;2.75;;;;;;;26.29;42.77;96389.22;4916507;29;20056;-80
2022/06/15 10:32:31;;;;;;;7.53;3.20;;;;;;;26.28;44.37;96389.63;4922052;29;20581;-81
2022/06/15 10:35:08;;;;;;;3.85;2.45;;;;;;;26.48;44.41;96385.00;4921491;29;20052;-82
2022/06/15 10:37:36;;;;;;;7.03;2.53;;;;;;;26.48;41.57;96384.19;4902809;29;20099;-80
2022/06/15 10:40:07;;;;;;;4.45;2.53;;;;;;;26.61;45.08;96390.78;4916943;29;20071;-79
2022/06/15 10:42:37;;;;;;;7.57;2.78;;;;;;;26.47;40.10;96377.03;4914897;29;20044;-79
2022/06/15 10:45:08;;;;;;;5.63;2.47;;;;;;;26.50;46.31;96381.75;4915650;29;20059;-80
2022/06/15 10:50:22;;;;;;;9.25;3.08;;;;;;;26.64;42.20;96380.78;5674718;23;20032;-80
2022/06/15 10:52:54;;;;;;;4.00;2.70;;;;;;;26.66;45.06;96379.13;4937369;23;20048;-79
2022/06/15 11:06:36;;;;;;;;;;;;;;;26.58;43.47;96379.66;4999740;23;20044;-82
2022/06/15 11:09:03;;;;;;;3.95;2.20;;;;;;;26.61;44.06;96376.00;5281276;23;19923;-78
2022/06/15 11:14:55;;;;;;;3.63;2.10;;;;;;;26.56;45.20;96370.91;5075474;23;20139;-78
2022/06/15 11:20:29;;;;;;;3.58;2.30;;;;;;;26.63;45.61;96362.44;4929069;29;20514;-82
2022/06/15 11:23:02;;;;;;;5.55;2.83;;;;;;;26.68;42.51;96353.56;4919163;29;20460;-81
2022/06/15 11:28:16;;;;;;;4.13;2.35;;;;;;;26.52;42.52;96357.03;5459151;23;19907;-81
2022/06/15 11:33:25;;;;;;;6.25;2.17;;;;;;;26.50;39.53;96354.63;5919545;23;20015;-82
2022/06/15 11:36:02;;;;;;;5.15;2.30;;;;;;;26.50;41.30;96356.63;4978254;23;20504;-78
2022/06/15 11:38:39;;;;;;;2.92;2.03;;;;;;;26.65;45.10;96349.63;4905372;29;20049;-81
2022/06/15 11:41:17;;;;;;;3.67;2.30;;;;;;;26.60;42.77;96352.88;4898689;29;20540;-81
2022/06/15 11:43:47;;;;;;;7.75;2.40;;;;;;;26.49;39.04;96357.84;4899289;29;20064;-81
2022/06/15 11:46:27;;;;;;;5.57;2.67;;;;;;;26.46;42.95;96348.31;4904982;29;20124;-81
2022/06/15 11:51:34;;;;;;;5.00;2.35;;;;;;;26.53;39.76;96347.44;4927995;23;20411;-80
2022/06/15 11:56:51;;;;;;;4.45;2.17;;;;;;;26.59;42.75;96344.94;4928426;23;20123;-79
2022/06/15 11:59:29;;;;;;;5.07;2.40;;;;;;;26.49;41.21;96349.47;4930259;29;20052;-79
2022/06/15 12:02:01;;;;;;;4.90;2.28;;;;;;;26.54;39.06;96343.41;4934008;23;20103;-80
2022/06/15 12:04:43;;;;;;;6.68;2.80;;;;;;;26.54;42.84;96346.22;4916850;29;20056;-80
2022/06/15 12:07:19;;;;;;;11.05;3.47;;;;;;;26.56;44.33;96346.56;4920373;29;20071;-80
2022/06/15 12:09:58;;;;;;;8.82;3.00;;;;;;;26.57;40.60;96345.34;4900841;29;20460;-80
2022/06/15 12:12:41;;;;;;;5.55;2.42;;;;;;;26.69;41.55;96344.75;4913842;29;20047;-79
2022/06/15 12:15:33;;;;;;;4.43;2.28;;;;;;;26.44;37.51;96336.00;5161570;23;20026;-81
2022/06/15 12:23:26;;;;;;;5.10;2.40;;;;;;;26.53;41.17;96337.03;5156816;23;19947;-77
2022/06/15 12:25:58;;;;;;;;;;;;;;;26.59;40.85;96342.16;4950185;23;20047;-82
2022/06/15 12:28:33;;;;;;;3.65;1.90;;;;;;;26.60;41.82;96336.13;4914496;29;19930;-82
2022/06/15 12:31:06;;;;;;;6.28;2.95;;;;;;;26.51;40.33;96338.66;4930592;29;20051;-79
2022/06/15 12:38:57;;;;;;;7.20;1.90;;;;;;;26.49;41.18;96332.72;5312884;23;20404;-81
2022/06/15 12:44:01;;;;;;;3.95;2.10;;;;;;;26.43;40.63;96321.25;5741643;23;20472;-79
2022/06/15 12:46:29;;;;;;;6.30;2.15;;;;;;;26.41;41.33;96326.41;4913527;29;20044;-78
2022/06/15 12:49:07;;;;;;;2.88;1.77;;;;;;;26.29;36.64;96311.03;4914519;29;20063;-78
2022/06/15 12:51:43;;;;;;;2.60;2.10;;;;;;;26.44;40.67;96316.44;5041309;23;20052;-80
2022/06/15 13:00:13;;;;;;;4.95;2.20;;;;;;;26.49;40.23;96315.97;5594001;23;20144;-77
2022/06/15 13:02:44;;;;;;;7.13;2.42;;;;;;;26.46;39.73;96317.59;4927449;28;20043;-79
2022/06/15 13:05:20;;;;;;;4.82;2.38;;;;;;;26.50;41.16;96323.13;4947499;23;20064;-80
2022/06/15 13:08:25;;;;;;;2.45;1.80;;;;;;;26.52;40.30;96317.94;4924877;29;20055;-80
2022/06/15 13:11:14;;;;;;;3.05;2.08;;;;;;;26.59;38.75;96317.81;4927117;29;20044;-80
2022/06/15 13:13:44;;;;;;;4.65;2.20;;;;;;;26.49;38.16;96315.97;4933516;28;20044;-79
2022/06/15 13:16:15;;;;;;;4.32;2.33;;;;;;;26.54;39.14;96312.69;4926009;29;20056;-79
2022/06/15 13:18:47;;;;;;;4.30;2.00;;;;;;;26.51;38.81;96308.72;5072935;23;1215495;-77
2022/06/15 13:21:15;;;;;;;3.63;2.00;;;;;;;26.62;39.91;96305.75;5135203;23;20312;-84
2022/06/15 13:23:45;;;;;;;4.18;2.22;;;;;;;26.66;41.13;96312.09;4913248;29;20356;-83
2022/06/15 13:26:16;;;;;;;5.80;2.03;;;;;;;26.63;38.36;96310.16;4924220;29;20067;-83
2022/06/15 13:28:45;;;;;;;5.32;2.00;;;;;;;26.66;38.03;96317.66;4930490;28;20067;-82
2022/06/15 13:34:07;;;;;;;3.35;2.13;;;;;;;26.72;39.76;96307.59;5279439;23;20051;-82
2022/06/15 13:36:36;;;;;;;3.30;1.98;;;;;;;26.64;39.10;96308.16;5040599;23;20040;-83
2022/06/15 13:41:44;;;;;;;4.03;2.45;;;;;;;26.70;39.57;96307.25;5520179;23;20063;-82
2022/06/15 13:44:14;;;;;;;6.25;2.63;;;;;;;26.74;39.44;96313.56;4925467;29;20056;-82
2022/06/15 13:54:41;;;;;;;5.38;2.33;;;;;;;26.50;37.94;96303.56;5103243;23;20028;-81
2022/06/15 13:57:19;;;;;;;5.95;2.50;;;;;;;26.55;39.18;96305.91;4950681;23;20104;-77
2022/06/15 14:02:30;;;;;;;4.45;2.13;;;;;;;26.84;40.44;96302.63;5359305;23;20131;-84
2022/06/15 14:05:11;;;;;;;3.72;2.20;;;;;;;26.88;39.99;96306.13;4903040;29;20044;-85
2022/06/15 14:07:59;;;;;;;3.83;2.00;;;;;;;26.82;38.94;96297.44;4920550;29;20044;-85
2022/06/15 14:10:39;;;;;;;4.28;2.22;;;;;;;26.85;37.23;96293.03;4920942;29;20388;-82
2022/06/15 14:13:30;;;;;;;2.60;2.25;;;;;;;26.76;36.61;96287.97;4923712;29;20048;-81
2022/06/15 14:16:12;;;;;;;2.67;2.00;;;;;;;26.82;39.13;96285.47;4930297;29;20052;-85
2022/06/15 14:18:45;;;;;;;3.37;2.40;;;;;;;26.87;42.51;96290.59;4919777;29;20036;-84
2022/06/15 14:21:15;;;;;;;5.07;2.60;;;;;;;26.69;39.47;96288.91;4920157;29;20397;-83
2022/06/15 14:23:42;;;;;;;5.50;2.08;;;;;;;26.62;37.84;96294.59;4928721;29;20052;-83
2022/06/15 14:26:11;;;;;;;5.03;2.20;;;;;;;26.65;37.79;96288.16;5546854;23;20362;-82
2022/06/15 14:28:39;;;;;;;4.32;2.22;;;;;;;26.74;39.57;96291.22;4931680;28;20055;-83
2022/06/15 14:31:08;;;;;;;2.80;1.95;;;;;;;26.82;38.88;96277.91;4928437;29;20058;-83
2022/06/15 14:33:36;;;;;;;4.95;2.08;;;;;;;26.67;38.32;96282.16;4924080;29;20079;-83
2022/06/15 14:36:09;;;;;;;4.43;2.28;;;;;;;26.62;37.19;96280.63;4929899;29;20048;-79
2022/06/15 14:38:36;;;;;;;3.58;2.20;;;;;;;26.72;38.83;96282.44;4909472;29;20127;-83
2022/06/15 14:41:17;;;;;;;3.58;2.08;;;;;;;26.75;38.55;96270.44;4921768;29;20508;-82
2022/06/15 14:43:46;;;;;;;3.67;2.38;;;;;;;26.69;40.55;96265.78;4919098;29;20044;-82
2022/06/15 14:46:14;;;;;;;5.70;2.28;;;;;;;26.66;39.83;96261.81;4910542;29;20562;-82
2022/06/15 14:48:46;;;;;;;3.05;2.00;;;;;;;26.66;39.14;96272.97;4979454;23;20121;-82